Time;durP1;ratioP1;P1;durP2;ratioP2;P2;SDS_P1;SDS_P2;PMS_P1;PMS_P2;Temp;Humidity;BMP_temperature;BMP_pressure;BME280_temperature;BME280_humidity;BME280_pressure;Samples;Min_cycle;Max_cycle;Signal;HPM_P1;HPM_P2
2022/10/08 00:00:09;;;;;;;8.97;5.50;;;11.60;99.90;;;;;;5068045;23;20536;-69
2022/10/08 00:02:09;;;;;;;9.87;5.53;;;11.50;99.90;;;;;;5041659;23;20713;-69
2022/10/08 00:04:11;;;;;;;7.80;5.73;;;11.50;99.90;;;;;;5067365;23;20186;-69
2022/10/08 00:06:16;;;;;;;8.83;5.27;;;11.60;99.90;;;;;;5042147;23;20171;-69
2022/10/08 00:08:16;;;;;;;8.43;5.37;;;11.60;99.90;;;;;;5067570;23;20162;-70
2022/10/08 00:10:17;;;;;;;6.23;4.80;;;11.60;99.90;;;;;;5041045;23;20675;-68
2022/10/08 00:12:17;;;;;;;9.30;5.40;;;11.60;99.90;;;;;;5065647;23;20651;-69
2022/10/08 00:14:18;;;;;;;9.33;5.33;;;11.50;99.90;;;;;;5067666;23;20178;-69
2022/10/08 00:16:22;;;;;;;8.37;5.23;;;11.60;99.90;;;;;;5067756;23;20158;-69
2022/10/08 00:18:23;;;;;;;8.07;5.03;;;11.60;99.90;;;;;;5067702;23;20158;-70
2022/10/08 00:20:23;;;;;;;6.07;4.93;;;11.50;99.90;;;;;;5066907;23;20163;-69
2022/10/08 00:22:24;;;;;;;6.63;5.03;;;11.50;99.90;;;;;;5067794;23;20238;-69
2022/10/08 00:24:25;;;;;;;7.83;5.00;;;11.50;99.90;;;;;;5067552;23;20170;-70
2022/10/08 00:26:27;;;;;;;10.47;5.20;;;11.50;99.90;;;;;;5066970;23;20155;-69
2022/10/08 00:28:28;;;;;;;8.47;4.80;;;11.50;99.90;;;;;;5067436;23;20503;-69
2022/10/08 00:30:29;;;;;;;9.90;5.43;;;11.50;99.90;;;;;;5066154;23;20169;-69
2022/10/08 00:32:29;;;;;;;7.87;5.07;;;11.60;99.90;;;;;;5066942;23;20162;-69
2022/10/08 00:34:30;;;;;;;8.97;5.43;;;11.60;99.90;;;;;;5067242;23;20518;-70
2022/10/08 00:36:32;;;;;;;8.33;4.80;;;11.60;99.90;;;;;;5067341;23;20182;-72
2022/10/08 00:38:33;;;;;;;11.27;4.50;;;11.70;99.90;;;;;;5067548;23;20221;-70
2022/10/08 00:40:42;;;;;;;7.70;5.00;;;11.60;99.90;;;;;;5066527;23;20154;-69
2022/10/08 00:42:42;;;;;;;7.57;5.47;;;11.50;99.90;;;;;;5067472;23;20174;-70
2022/10/08 00:44:46;;;;;;;8.13;5.20;;;11.60;99.90;;;;;;5067805;23;20189;-69
2022/10/08 00:46:49;;;;;;;9.13;5.40;;;11.60;99.90;;;;;;5067281;23;20209;-70
2022/10/08 00:49:14;;;;;;;8.93;5.70;;;11.50;99.90;;;;;;5067125;23;20577;-69
2022/10/08 00:51:14;;;;;;;8.47;5.43;;;11.60;99.90;;;;;;5066677;23;20234;-69
2022/10/08 00:53:15;;;;;;;6.13;5.10;;;11.50;99.90;;;;;;5067314;23;20159;-69
2022/10/08 00:55:18;;;;;;;8.43;5.70;;;11.30;99.90;;;;;;5066983;23;20246;-69
2022/10/08 00:57:21;;;;;;;8.37;5.43;;;11.50;99.90;;;;;;5067069;23;20248;-70
2022/10/08 00:59:22;;;;;;;8.97;5.57;;;11.50;99.90;;;;;;5066806;23;20165;-70
2022/10/08 01:01:22;;;;;;;9.37;5.47;;;11.50;99.90;;;;;;5066218;23;20237;-70
2022/10/08 01:03:23;;;;;;;7.93;5.40;;;11.60;99.90;;;;;;5067138;23;20162;-69
2022/10/08 01:05:27;;;;;;;10.57;5.43;;;11.70;99.90;;;;;;5066877;23;20211;-69
2022/10/08 01:07:45;;;;;;;14.43;5.83;;;11.60;99.90;;;;;;5066768;23;20185;-69
2022/10/08 01:10:00;;;;;;;10.67;6.00;;;11.70;99.90;;;;;;5066812;23;20202;-69
2022/10/08 01:12:22;;;;;;;9.37;5.27;;;11.70;99.90;;;;;;5066150;23;20162;-69
2022/10/08 01:14:47;;;;;;;8.93;5.37;;;11.70;99.90;;;;;;5067239;23;20186;-69
2022/10/08 01:17:08;;;;;;;7.97;5.63;;;11.70;99.90;;;;;;5066748;23;20162;-69
2022/10/08 01:19:30;;;;;;;11.70;5.00;;;11.60;99.90;;;;;;5066999;23;20165;-69
2022/10/08 01:21:56;;;;;;;7.93;5.40;;;11.60;99.90;;;;;;5066177;23;20566;-69
2022/10/08 01:27:02;;;;;;;8.37;5.90;;;11.50;99.90;;;;;;5066570;23;20208;-69
2022/10/08 01:29:25;;;;;;;12.03;6.17;;;11.40;99.90;;;;;;5066732;23;20197;-69
2022/10/08 01:31:32;;;;;;;6.67;5.30;;;11.30;99.90;;;;;;5040157;23;20279;-68
2022/10/08 01:33:36;;;;;;;10.03;5.60;;;11.30;99.90;;;;;;5066855;23;20185;-69
2022/10/08 01:35:43;;;;;;;7.67;6.10;;;11.40;99.90;;;;;;5067015;23;20178;-70
2022/10/08 01:37:45;;;;;;;7.23;5.63;;;11.20;99.90;;;;;;5067056;23;20153;-69
2022/10/08 01:39:50;;;;;;;11.13;6.03;;;11.30;99.90;;;;;;5041159;23;20163;-69
2022/10/08 01:41:55;;;;;;;7.63;5.33;;;11.40;99.90;;;;;;5066127;23;20230;-69
2022/10/08 01:44:07;;;;;;;8.20;5.77;;;11.40;99.90;;;;;;5066644;23;20186;-68
2022/10/08 01:46:18;;;;;;;6.47;5.17;;;11.30;99.90;;;;;;5066777;23;20154;-70
2022/10/08 01:48:24;;;;;;;8.17;5.13;;;11.20;99.90;;;;;;5066621;23;20226;-69
2022/10/08 01:50:31;;;;;;;8.60;5.27;;;11.30;99.90;;;;;;5065784;23;20274;-69
2022/10/08 01:52:37;;;;;;;9.37;5.53;;;11.30;99.90;;;;;;5066482;23;20166;-72
2022/10/08 01:54:42;;;;;;;8.73;5.27;;;11.30;99.90;;;;;;5066696;23;20944;-69
2022/10/08 01:56:46;;;;;;;8.63;5.83;;;11.30;99.90;;;;;;5040445;23;20178;-69
2022/10/08 01:58:54;;;;;;;10.13;5.40;;;11.30;99.90;;;;;;5066349;23;20162;-71
2022/10/08 02:01:01;;;;;;;7.03;5.27;;;11.40;99.90;;;;;;5065698;23;20608;-69
2022/10/08 02:03:03;;;;;;;8.50;5.07;;;11.30;99.90;;;;;;5066365;23;20166;-69
2022/10/08 02:05:05;;;;;;;7.77;5.07;;;11.30;99.90;;;;;;5066399;23;20295;-69
2022/10/08 02:07:10;;;;;;;8.27;5.53;;;11.30;99.90;;;;;;5066291;23;20158;-69
2022/10/08 02:09:10;;;;;;;8.87;5.90;;;11.40;99.90;;;;;;5066262;23;20190;-70
2022/10/08 02:11:11;;;;;;;10.97;5.47;;;11.30;99.90;;;;;;5061612;23;20155;-69
2022/10/08 02:13:13;;;;;;;7.33;5.40;;;11.30;99.90;;;;;;5066391;23;20193;-68
2022/10/08 02:15:21;;;;;;;7.73;5.40;;;11.30;99.90;;;;;;5066700;23;20186;-69
2022/10/08 02:17:52;;;;;;;7.00;5.23;;;11.20;99.90;;;;;;5068315;23;20166;-69
2022/10/08 02:19:58;;;;;;;9.77;5.70;;;11.20;99.90;;;;;;5067895;23;20193;-69
2022/10/08 02:22:02;;;;;;;8.50;6.00;;;11.10;99.90;;;;;;5041497;23;20179;-69
2022/10/08 02:24:20;;;;;;;7.90;4.90;;;11.20;99.90;;;;;;5068007;23;20185;-69
2022/10/08 02:26:32;;;;;;;9.63;5.77;;;11.20;99.90;;;;;;5068058;23;20538;-68
2022/10/08 02:28:58;;;;;;;8.97;6.07;;;11.30;99.90;;;;;;5041586;23;20912;-69
2022/10/08 02:31:06;;;;;;;8.73;4.90;;;11.20;99.90;;;;;;5067515;23;20656;-69
2022/10/08 02:33:16;;;;;;;7.93;4.93;;;11.20;99.90;;;;;;5068031;23;20237;-69
2022/10/08 02:35:24;;;;;;;7.93;4.93;;;11.20;99.90;;;;;;5068268;23;20174;-69
2022/10/08 02:37:33;;;;;;;8.67;5.80;;;11.20;99.90;;;;;;5067971;23;20189;-69
2022/10/08 02:39:37;;;;;;;7.53;5.10;;;11.20;99.90;;;;;;5067848;23;20170;-72
2022/10/08 02:41:47;;;;;;;9.80;5.60;;;11.20;99.90;;;;;;5067197;23;20174;-69
2022/10/08 02:43:49;;;;;;;6.60;5.60;;;11.40;99.90;;;;;;5068183;23;20186;-69
2022/10/08 02:46:26;;;;;;;10.10;5.60;;;11.30;99.90;;;;;;5068230;23;20169;-69
2022/10/08 02:48:31;;;;;;;7.73;5.77;;;11.30;99.90;;;;;;5043081;23;20166;-69
2022/10/08 02:50:35;;;;;;;8.03;5.23;;;11.20;99.90;;;;;;5067075;23;20161;-70
2022/10/08 02:52:39;;;;;;;8.53;5.30;;;11.20;99.90;;;;;;5067899;23;20166;-69
2022/10/08 02:54:43;;;;;;;10.37;5.57;;;11.10;99.90;;;;;;5067877;23;20201;-70
2022/10/08 02:57:16;;;;;;;9.83;6.00;;;11.00;99.90;;;;;;5067807;23;20162;-70
2022/10/08 02:59:19;;;;;;;9.47;5.60;;;11.10;99.90;;;;;;5041964;23;20186;-69
2022/10/08 03:01:35;;;;;;;7.57;5.70;;;11.00;99.90;;;;;;5067034;23;20182;-69
2022/10/08 03:03:57;;;;;;;9.13;5.43;;;11.00;99.90;;;;;;5067590;23;20161;-70
2022/10/08 03:06:01;;;;;;;8.80;5.27;;;11.00;99.90;;;;;;5067780;23;20727;-70
2022/10/08 03:08:04;;;;;;;6.37;5.00;;;11.00;99.90;;;;;;5067862;23;20221;-70
2022/10/08 03:10:06;;;;;;;7.73;5.00;;;11.10;99.90;;;;;;5068080;23;20547;-70
2022/10/08 03:12:07;;;;;;;8.43;5.00;;;11.10;99.90;;;;;;5067225;23;20481;-70
2022/10/08 03:14:11;;;;;;;8.30;5.70;;;11.10;99.90;;;;;;5067652;23;20181;-70
2022/10/08 03:16:15;;;;;;;10.37;6.30;;;11.00;99.90;;;;;;5067704;23;20164;-69
2022/10/08 03:18:16;;;;;;;7.97;5.03;;;11.10;99.90;;;;;;5067693;23;20162;-70
2022/10/08 03:20:17;;;;;;;6.80;5.07;;;11.10;99.90;;;;;;5066966;23;20217;-69
2022/10/08 03:22:18;;;;;;;11.93;5.90;;;11.00;99.90;;;;;;5067547;23;20266;-69
2022/10/08 03:24:19;;;;;;;9.83;6.53;;;11.00;99.90;;;;;;5041637;23;20187;-69
2022/10/08 03:26:19;;;;;;;9.40;5.93;;;11.00;99.90;;;;;;5067596;23;20169;-68
2022/10/08 03:28:20;;;;;;;11.07;6.30;;;10.90;99.90;;;;;;5067655;23;20163;-68
2022/10/08 03:30:20;;;;;;;9.37;5.83;;;11.00;99.90;;;;;;5066803;23;20655;-69
2022/10/08 03:32:25;;;;;;;9.80;6.50;;;11.00;99.90;;;;;;5067765;23;20220;-69
2022/10/08 03:34:25;;;;;;;11.70;5.77;;;11.00;99.90;;;;;;5067746;23;20186;-69
2022/10/08 03:36:26;;;;;;;8.33;5.83;;;11.10;99.90;;;;;;5041861;23;20167;-69
2022/10/08 03:38:27;;;;;;;8.33;5.73;;;11.00;99.90;;;;;;5067671;23;20505;-69
2022/10/08 03:40:27;;;;;;;12.73;5.93;;;11.00;99.90;;;;;;5040977;23;20167;-69
2022/10/08 03:42:28;;;;;;;12.03;5.83;;;11.00;99.90;;;;;;5067580;23;20165;-69
2022/10/08 03:44:28;;;;;;;10.40;6.00;;;11.10;99.90;;;;;;5042069;23;20183;-69
2022/10/08 03:46:29;;;;;;;8.40;5.60;;;11.00;99.90;;;;;;5067445;23;20241;-70
2022/10/08 03:48:30;;;;;;;7.10;5.27;;;11.00;99.90;;;;;;5067338;23;20174;-69
2022/10/08 03:50:30;;;;;;;8.30;5.43;;;11.00;99.90;;;;;;5066645;23;20362;-70
2022/10/08 03:52:31;;;;;;;7.97;5.37;;;11.00;99.90;;;;;;5042102;23;20215;-68
2022/10/08 03:54:34;;;;;;;8.80;5.60;;;10.90;99.90;;;;;;5067662;23;20560;-69
2022/10/08 03:56:35;;;;;;;7.47;4.83;;;10.90;99.90;;;;;;5067390;23;20159;-70
2022/10/08 03:58:36;;;;;;;9.57;5.20;;;11.00;99.90;;;;;;5067738;23;20281;-69
2022/10/08 04:00:36;;;;;;;10.67;5.23;;;11.00;99.90;;;;;;5066814;23;20162;-69
2022/10/08 04:02:37;;;;;;;8.80;5.53;;;11.00;99.90;;;;;;5067565;23;20267;-69
2022/10/08 04:04:37;;;;;;;8.00;5.33;;;11.00;99.90;;;;;;5067735;23;20188;-70
2022/10/08 04:06:38;;;;;;;8.53;4.80;;;11.00;99.90;;;;;;5041546;23;20676;-69
2022/10/08 04:08:39;;;;;;;8.53;5.50;;;11.00;99.90;;;;;;5067224;23;20562;-69
2022/10/08 04:10:39;;;;;;;9.50;4.83;;;11.00;99.90;;;;;;5066396;23;20155;-70
2022/10/08 04:12:40;;;;;;;6.40;5.23;;;10.90;99.90;;;;;;5066824;23;20494;-70
2022/10/08 04:14:40;;;;;;;7.27;5.20;;;10.90;99.90;;;;;;5066911;23;20727;-70
2022/10/08 04:16:41;;;;;;;10.10;5.00;;;10.90;99.90;;;;;;5067197;23;20162;-70
2022/10/08 04:18:42;;;;;;;6.87;4.87;;;10.90;99.90;;;;;;5067152;23;20158;-70
2022/10/08 04:20:43;;;;;;;7.10;4.97;;;10.90;99.90;;;;;;5065947;23;20170;-70
2022/10/08 04:22:43;;;;;;;9.53;5.50;;;10.90;99.90;;;;;;5066868;23;20194;-70
2022/10/08 04:24:44;;;;;;;12.70;5.10;;;10.90;99.90;;;;;;5066870;23;20663;-69
2022/10/08 04:26:44;;;;;;;7.90;4.80;;;10.90;99.90;;;;;;5066951;23;20162;-70
2022/10/08 04:28:46;;;;;;;9.70;6.07;;;10.90;99.90;;;;;;5040931;23;20159;-69
2022/10/08 04:31:02;;;;;;;7.30;5.20;;;10.90;99.90;;;;;;5066610;23;20497;-69
2022/10/08 04:33:02;;;;;;;10.20;5.20;;;11.00;99.90;;;;;;5066786;23;20196;-70
2022/10/08 04:35:03;;;;;;;10.00;5.27;;;11.00;99.90;;;;;;5066811;23;20178;-69
2022/10/08 04:37:04;;;;;;;7.57;6.17;;;11.00;99.90;;;;;;5067199;23;20174;-70
2022/10/08 04:39:04;;;;;;;10.17;6.10;;;11.10;99.90;;;;;;5067104;23;20162;-70
2022/10/08 04:41:10;;;;;;;10.10;5.30;;;11.10;99.90;;;;;;5066198;23;20165;-70
2022/10/08 04:43:11;;;;;;;7.53;5.30;;;11.10;99.90;;;;;;5067073;23;20545;-69
2022/10/08 04:45:12;;;;;;;9.43;5.40;;;11.10;99.90;;;;;;5066912;23;20186;-69
2022/10/08 04:47:12;;;;;;;6.90;5.10;;;11.10;99.90;;;;;;5041073;23;20178;-70
2022/10/08 04:49:13;;;;;;;9.07;5.07;;;11.10;99.90;;;;;;5066774;23;20218;-70
2022/10/08 04:51:15;;;;;;;6.80;4.70;;;11.10;99.90;;;;;;5066141;23;20535;-69
2022/10/08 04:53:15;;;;;;;6.43;5.20;;;11.20;99.90;;;;;;5067024;23;20160;-69
2022/10/08 04:55:16;;;;;;;7.70;4.57;;;11.30;99.90;;;;;;5066685;23;20201;-69
2022/10/08 04:57:16;;;;;;;8.53;5.13;;;11.30;99.90;;;;;;5066854;23;20155;-69
2022/10/08 04:59:17;;;;;;;8.83;4.70;;;11.30;99.90;;;;;;5066773;23;20167;-70
2022/10/08 05:01:19;;;;;;;6.20;4.73;;;11.30;99.90;;;;;;5066192;23;20170;-69
2022/10/08 05:03:20;;;;;;;8.60;5.20;;;11.30;99.90;;;;;;5066764;23;20630;-69
2022/10/08 05:05:20;;;;;;;8.67;5.07;;;11.30;99.90;;;;;;5066912;23;20179;-69
2022/10/08 05:07:21;;;;;;;10.23;5.13;;;11.40;99.90;;;;;;5041093;23;20789;-70
2022/10/08 05:09:22;;;;;;;7.57;5.20;;;11.40;99.90;;;;;;5066678;23;20186;-69
2022/10/08 05:11:24;;;;;;;7.07;4.67;;;11.40;99.90;;;;;;5065645;23;20291;-69
2022/10/08 05:13:25;;;;;;;6.83;4.63;;;11.40;99.90;;;;;;5066848;23;20202;-69
2022/10/08 05:15:26;;;;;;;7.37;4.90;;;11.50;99.90;;;;;;5067286;23;20178;-68
2022/10/08 05:17:27;;;;;;;9.27;4.90;;;11.40;99.90;;;;;;5040957;23;20186;-69
2022/10/08 05:19:27;;;;;;;8.87;5.53;;;11.40;99.90;;;;;;5066643;23;20209;-69
2022/10/08 05:21:29;;;;;;;6.90;4.80;;;11.40;99.90;;;;;;5065914;23;20642;-69
2022/10/08 05:23:30;;;;;;;10.70;6.63;;;11.40;99.90;;;;;;5066191;23;20162;-69
2022/10/08 05:25:32;;;;;;;8.70;5.13;;;11.40;99.90;;;;;;5066294;23;20200;-69
2022/10/08 05:27:32;;;;;;;7.90;4.90;;;11.40;99.90;;;;;;5066325;23;20229;-69
2022/10/08 05:29:33;;;;;;;7.57;4.73;;;11.40;99.90;;;;;;5066115;23;20197;-69
2022/10/08 05:31:35;;;;;;;8.80;5.63;;;11.40;99.90;;;;;;5065623;23;20166;-71
2022/10/08 05:33:36;;;;;;;9.07;6.03;;;11.30;99.90;;;;;;5065152;23;20174;-71
2022/10/08 05:35:37;;;;;;;8.30;5.30;;;11.30;99.90;;;;;;5065306;23;20626;-71
2022/10/08 05:37:38;;;;;;;7.57;5.13;;;11.50;99.90;;;;;;5065500;23;20239;-71
2022/10/08 05:39:38;;;;;;;5.93;5.00;;;11.50;99.90;;;;;;5065075;23;20166;-72
2022/10/08 05:41:40;;;;;;;7.97;4.87;;;11.50;99.90;;;;;;5064458;23;20209;-70
2022/10/08 05:43:41;;;;;;;11.13;6.20;;;11.60;99.90;;;;;;5065169;23;20890;-71
2022/10/08 05:45:49;;;;;;;9.90;5.73;;;11.60;99.90;;;;;;5039411;23;20179;-70
2022/10/08 05:47:49;;;;;;;7.67;5.07;;;11.40;99.90;;;;;;5065276;23;20499;-70
2022/10/08 05:49:50;;;;;;;7.80;5.23;;;11.40;99.90;;;;;;5063998;23;20190;-70
2022/10/08 05:51:50;;;;;;;7.97;5.07;;;11.40;99.90;;;;;;5064580;23;20154;-71
2022/10/08 05:53:53;;;;;;;11.67;5.27;;;11.40;99.90;;;;;;5065113;23;20178;-71
2022/10/08 05:56:02;;;;;;;9.50;5.47;;;11.40;99.90;;;;;;5065201;23;20777;-71
2022/10/08 05:58:02;;;;;;;7.00;4.37;;;11.50;99.90;;;;;;5065101;23;20643;-71
2022/10/08 06:00:04;;;;;;;9.70;5.17;;;11.60;99.90;;;;;;5064924;23;20233;-70
2022/10/08 06:02:04;;;;;;;11.73;6.83;;;11.60;99.90;;;;;;5064285;23;20162;-71
2022/10/08 06:04:05;;;;;;;10.07;5.87;;;11.50;99.90;;;;;;5065042;23;20531;-70
2022/10/08 06:06:08;;;;;;;7.80;6.90;;;11.50;99.90;;;;;;5064798;23;20821;-70
2022/10/08 06:08:09;;;;;;;9.77;6.73;;;11.60;99.90;;;;;;5039419;23;20190;-71
2022/10/08 06:10:10;;;;;;;13.10;6.27;;;11.60;99.90;;;;;;5064776;23;20205;-70
2022/10/08 06:12:12;;;;;;;9.83;6.17;;;11.60;99.90;;;;;;5065007;23;20519;-70
2022/10/08 06:14:15;;;;;;;10.50;6.37;;;11.60;99.90;;;;;;5065245;23;20187;-70
2022/10/08 06:16:16;;;;;;;8.03;5.13;;;11.50;99.90;;;;;;5065064;23;20162;-70
2022/10/08 06:18:17;;;;;;;10.70;6.20;;;11.50;99.90;;;;;;5039434;23;20807;-70
2022/10/08 06:20:17;;;;;;;8.80;5.40;;;11.70;99.90;;;;;;5063839;23;20196;-70
2022/10/08 06:22:18;;;;;;;9.60;5.27;;;11.70;99.90;;;;;;5064819;23;20683;-70
2022/10/08 06:24:19;;;;;;;8.03;5.73;;;11.80;99.90;;;;;;5064694;23;20182;-70
2022/10/08 06:26:21;;;;;;;9.90;5.67;;;11.90;99.90;;;;;;5064844;23;20159;-70
2022/10/08 06:28:21;;;;;;;8.63;5.10;;;12.00;99.90;;;;;;5064940;23;20162;-70
2022/10/08 06:30:22;;;;;;;8.47;6.03;;;12.00;99.90;;;;;;5063907;23;20528;-69
2022/10/08 06:32:22;;;;;;;8.57;5.40;;;12.20;99.90;;;;;;5020291;23;1051815;-70
2022/10/08 06:34:23;;;;;;;8.17;5.60;;;12.20;99.90;;;;;;5065808;23;20183;-70
2022/10/08 06:36:25;;;;;;;8.53;5.00;;;12.20;99.90;;;;;;5065979;23;20162;-70
2022/10/08 06:38:26;;;;;;;8.27;5.43;;;12.20;99.90;;;;;;5065971;23;20170;-70
2022/10/08 06:40:26;;;;;;;24.40;6.30;;;12.30;99.90;;;;;;5065315;23;20158;-71
2022/10/08 06:42:27;;;;;;;10.33;6.30;;;12.60;99.90;;;;;;5040176;23;20206;-70
2022/10/08 06:44:27;;;;;;;8.20;5.20;;;12.60;99.90;;;;;;5066185;23;20220;-70
2022/10/08 06:46:30;;;;;;;7.43;5.00;;;12.60;99.90;;;;;;5065964;23;20166;-71
2022/10/08 06:48:31;;;;;;;8.97;6.47;;;12.60;99.90;;;;;;5066167;23;20182;-70
2022/10/08 06:50:32;;;;;;;13.17;6.90;;;12.60;99.90;;;;;;5065547;23;20265;-71
2022/10/08 06:52:33;;;;;;;10.17;6.40;;;12.50;99.90;;;;;;5065727;23;20557;-70
2022/10/08 06:54:34;;;;;;;7.53;5.40;;;12.50;99.90;;;;;;5039710;23;20194;-71
2022/10/08 06:56:36;;;;;;;8.47;5.33;;;12.60;99.90;;;;;;5066190;23;20158;-70
2022/10/08 06:58:37;;;;;;;7.47;5.00;;;12.70;99.90;;;;;;5065870;23;20163;-71
2022/10/08 07:00:37;;;;;;;8.77;5.60;;;12.70;99.90;;;;;;5065428;23;20158;-70
2022/10/08 07:02:38;;;;;;;11.27;6.07;;;12.80;99.90;;;;;;5067359;23;20229;-71
2022/10/08 07:04:38;;;;;;;5.37;4.87;;;12.90;99.90;;;;;;5067216;23;20178;-69
2022/10/08 07:06:39;;;;;;;9.70;7.40;;;12.80;99.90;;;;;;5067585;23;20224;-71
2022/10/08 07:08:40;;;;;;;9.33;6.73;;;12.70;99.90;;;;;;5067558;23;20159;-71
2022/10/08 07:10:40;;;;;;;9.97;5.80;;;12.60;99.90;;;;;;5066797;23;20162;-71
2022/10/08 07:12:41;;;;;;;8.97;6.40;;;12.80;99.90;;;;;;5041629;23;20214;-70
2022/10/08 07:14:41;;;;;;;10.03;5.53;;;12.80;99.90;;;;;;5067015;23;20179;-71
2022/10/08 07:16:42;;;;;;;9.80;6.07;;;12.90;99.90;;;;;;5067392;23;20250;-71
2022/10/08 07:18:43;;;;;;;8.37;5.67;;;13.00;99.90;;;;;;5067244;23;20186;-71
2022/10/08 07:20:53;;;;;;;10.13;5.80;;;13.10;99.90;;;;;;5040535;23;20246;-69
2022/10/08 07:22:54;;;;;;;9.07;5.30;;;13.20;99.90;;;;;;5067201;23;20553;-69
2022/10/08 07:24:55;;;;;;;9.30;6.03;;;13.20;99.90;;;;;;5066906;23;20185;-69
2022/10/08 07:26:56;;;;;;;11.47;5.23;;;13.30;99.90;;;;;;5067037;23;20197;-70
2022/10/08 07:29:03;;;;;;;8.80;5.20;;;13.50;99.90;;;;;;5066859;23;20773;-71
2022/10/08 07:31:06;;;;;;;6.90;5.20;;;13.60;99.90;;;;;;5066401;23;20154;-70
2022/10/08 07:33:06;;;;;;;9.83;6.43;;;13.60;99.90;;;;;;5066910;23;20166;-71
2022/10/08 07:35:08;;;;;;;9.43;6.33;;;13.80;99.90;;;;;;5067179;23;20181;-72
2022/10/08 07:37:09;;;;;;;9.23;5.50;;;13.80;99.90;;;;;;5067020;23;20158;-71
2022/10/08 07:39:19;;;;;;;12.00;6.00;;;13.80;99.90;;;;;;5041549;23;20651;-71
2022/10/08 07:41:20;;;;;;;8.00;5.30;;;13.90;99.90;;;;;;5066519;23;20221;-71
2022/10/08 07:43:21;;;;;;;9.53;5.00;;;14.00;99.90;;;;;;5067407;23;20253;-71
2022/10/08 07:45:21;;;;;;;7.70;5.20;;;14.20;99.90;;;;;;5060345;23;20194;-71
2022/10/08 07:47:22;;;;;;;14.87;5.23;;;14.40;99.90;;;;;;5063525;23;20190;-72
2022/10/08 07:49:23;;;;;;;7.80;4.50;;;14.40;99.90;;;;;;5066068;23;20256;-72
2022/10/08 07:51:25;;;;;;;6.37;4.93;;;14.50;99.90;;;;;;5065365;23;20159;-68
2022/10/08 07:53:25;;;;;;;9.73;5.07;;;14.50;99.90;;;;;;5040009;23;20233;-70
2022/10/08 07:55:26;;;;;;;12.97;4.60;;;15.00;99.90;;;;;;5064760;23;20186;-71
2022/10/08 07:57:27;;;;;;;10.80;5.60;;;15.10;99.90;;;;;;5066302;23;20189;-71
2022/10/08 07:59:27;;;;;;;8.07;4.10;;;15.20;99.90;;;;;;5066045;23;20243;-75
2022/10/08 08:01:30;;;;;;;9.33;4.50;;;15.20;99.40;;;;;;5065309;23;20166;-72
2022/10/08 08:03:31;;;;;;;6.10;4.43;;;15.30;99.40;;;;;;5065801;23;20243;-69
2022/10/08 08:05:34;;;;;;;6.63;4.40;;;15.30;98.30;;;;;;5066120;23;20552;-70
2022/10/08 08:07:35;;;;;;;6.23;4.03;;;15.30;98.30;;;;;;5066022;23;20162;-69
2022/10/08 08:09:36;;;;;;;9.13;5.60;;;15.30;98.80;;;;;;5040388;23;20187;-70
2022/10/08 08:11:36;;;;;;;6.60;4.30;;;15.50;98.40;;;;;;5065594;23;20246;-69
2022/10/08 08:13:38;;;;;;;10.97;4.20;;;15.70;97.30;;;;;;5039717;23;20166;-70
2022/10/08 08:15:39;;;;;;;8.47;3.80;;;15.80;97.10;;;;;;5040372;23;20195;-69
2022/10/08 08:17:40;;;;;;;10.30;3.77;;;15.80;95.20;;;;;;5040451;23;20159;-71
2022/10/08 08:19:41;;;;;;;8.00;4.00;;;15.80;95.50;;;;;;5040140;23;20159;-69
2022/10/08 08:21:41;;;;;;;6.33;3.30;;;15.90;95.40;;;;;;5065031;23;20265;-71
2022/10/08 08:23:46;;;;;;;9.60;3.37;;;16.00;94.20;;;;;;5066133;23;20166;-69
2022/10/08 08:25:46;;;;;;;6.00;3.27;;;15.90;95.10;;;;;;5040653;23;20163;-69
2022/10/08 08:27:47;;;;;;;6.60;2.90;;;16.10;93.40;;;;;;5066105;23;20613;-72
2022/10/08 08:29:48;;;;;;;6.40;3.97;;;16.10;92.90;;;;;;5040452;23;20668;-72
2022/10/08 08:31:49;;;;;;;4.90;2.97;;;16.30;92.60;;;;;;5039828;23;20174;-71
2022/10/08 08:33:54;;;;;;;6.83;3.13;;;16.00;92.70;;;;;;5066094;23;20194;-70
2022/10/08 08:35:54;;;;;;;6.47;2.90;;;15.70;94.70;;;;;;5066022;23;20166;-70
2022/10/08 08:37:55;;;;;;;5.77;2.77;;;16.00;93.20;;;;;;5066080;23;20158;-71
2022/10/08 08:39:55;;;;;;;5.07;3.33;;;16.10;93.20;;;;;;5066200;23;20166;-71
2022/10/08 08:42:04;;;;;;;4.33;2.83;;;16.20;93.00;;;;;;5039196;23;20226;-71
2022/10/08 08:44:42;;;;;;;4.80;2.90;;;16.20;92.70;;;;;;5065770;23;20189;-70
2022/10/08 08:46:53;;;;;;;4.37;3.03;;;16.10;92.10;;;;;;4980610;23;20860;-71
2022/10/08 08:48:57;;;;;;;7.30;3.20;;;16.00;93.10;;;;;;5039814;23;20226;-70
2022/10/08 08:50:59;;;;;;;7.07;3.90;;;16.00;93.50;;;;;;5065008;23;20162;-70
2022/10/08 08:53:01;;;;;;;6.77;3.67;;;16.10;92.10;;;;;;5040078;23;20185;-69
2022/10/08 08:55:33;;;;;;;5.53;3.60;;;15.90;92.80;;;;;;5065932;23;20631;-68
2022/10/08 08:57:56;;;;;;;4.63;3.57;;;15.60;93.90;;;;;;5040229;23;20155;-69
2022/10/08 09:00:05;;;;;;;6.17;3.30;;;15.50;94.70;;;;;;5040076;23;20159;-70
2022/10/08 09:02:25;;;;;;;7.27;3.77;;;15.70;93.80;;;;;;5039418;23;20249;-71
2022/10/08 09:04:44;;;;;;;10.13;4.03;;;15.60;93.10;;;;;;5040208;23;20262;-70
2022/10/08 09:06:47;;;;;;;6.00;3.10;;;15.50;93.70;;;;;;5066101;23;20166;-70
2022/10/08 09:08:58;;;;;;;6.67;3.83;;;15.80;93.30;;;;;;5040210;23;20175;-71
2022/10/08 09:11:02;;;;;;;5.80;3.43;;;15.80;92.60;;;;;;5015523;23;20174;-70
2022/10/08 09:13:03;;;;;;;6.97;3.47;;;15.30;93.70;;;;;;5039988;23;20166;-72
2022/10/08 09:15:15;;;;;;;7.40;3.63;;;15.30;93.90;;;;;;5064352;23;20534;-71
2022/10/08 09:17:19;;;;;;;5.83;3.53;;;15.50;93.60;;;;;;5065811;23;20766;-71
2022/10/08 09:19:20;;;;;;;5.97;3.67;;;15.40;93.10;;;;;;5066066;23;20671;-72
2022/10/08 09:21:33;;;;;;;7.87;3.90;;;15.60;92.60;;;;;;5065150;23;20166;-71
2022/10/08 09:23:34;;;;;;;6.70;3.43;;;15.60;92.30;;;;;;5039795;23;20171;-69
2022/10/08 09:25:36;;;;;;;5.67;3.43;;;15.70;92.20;;;;;;5065813;23;20169;-69
2022/10/08 09:27:51;;;;;;;9.50;4.10;;;15.90;90.90;;;;;;5040069;23;20203;-69
2022/10/08 09:29:52;;;;;;;9.13;3.60;;;15.50;91.60;;;;;;5065498;23;20249;-69
2022/10/08 09:31:52;;;;;;;3.87;2.90;;;15.40;91.80;;;;;;5039258;23;20159;-69
2022/10/08 09:34:16;;;;;;;4.50;2.87;;;15.50;92.00;;;;;;5065456;23;20193;-69
2022/10/08 09:36:35;;;;;;;5.93;3.23;;;15.50;91.10;;;;;;5042432;23;20177;-68
2022/10/08 09:38:37;;;;;;;6.47;2.93;;;15.50;90.80;;;;;;5065561;23;20185;-69
2022/10/08 09:40:38;;;;;;;5.47;3.30;;;15.40;91.10;;;;;;5038903;23;20155;-68
2022/10/08 09:42:39;;;;;;;6.67;3.30;;;15.50;90.20;;;;;;5065290;23;20213;-71
2022/10/08 09:44:50;;;;;;;9.73;3.40;;;15.50;90.60;;;;;;5065727;23;20521;-70
2022/10/08 09:47:05;;;;;;;6.60;3.10;;;15.90;88.30;;;;;;5016007;23;20179;-69
2022/10/08 09:49:31;;;;;;;4.90;3.00;;;16.90;79.00;;;;;;5039645;23;20206;-69
2022/10/08 09:51:33;;;;;;;6.23;2.70;;;17.30;75.60;;;;;;5064801;23;20237;-68
2022/10/08 09:53:53;;;;;;;4.13;2.43;;;17.00;75.60;;;;;;5039620;23;20159;-70
2022/10/08 09:56:04;;;;;;;5.70;2.90;;;16.90;78.30;;;;;;5065567;23;20210;-70
2022/10/08 09:58:04;;;;;;;9.00;2.63;;;17.00;76.50;;;;;;5039896;23;20238;-71
2022/10/08 10:00:15;;;;;;;6.83;3.03;;;17.10;76.40;;;;;;5040035;23;20199;-73
2022/10/08 10:02:27;;;;;;;5.30;2.57;;;17.50;75.00;;;;;;5039457;23;20209;-71
2022/10/08 10:04:34;;;;;;;5.47;2.57;;;17.70;74.00;;;;;;5039697;23;20230;-69
2022/10/08 10:06:38;;;;;;;4.00;2.53;;;17.70;73.50;;;;;;5040103;23;20250;-72
2022/10/08 10:08:47;;;;;;;6.00;2.77;;;18.10;74.40;;;;;;5039810;23;20158;-72
2022/10/08 10:10:48;;;;;;;4.53;2.67;;;19.10;70.20;;;;;;5039232;23;20644;-71
2022/10/08 10:12:55;;;;;;;5.57;2.37;;;19.90;63.10;;;;;;5065273;23;20165;-71
2022/10/08 10:15:04;;;;;;;5.57;2.47;;;20.30;61.20;;;;;;5065238;23;20185;-71
2022/10/08 10:17:15;;;;;;;5.83;2.40;;;20.50;60.30;;;;;;5039757;23;20199;-70
2022/10/08 10:19:24;;;;;;;2.90;2.60;;;19.80;61.60;;;;;;5039763;23;20162;-71
2022/10/08 10:22:04;;;;;;;3.73;2.20;;;19.80;59.50;;;;;;5039134;23;20634;-69
2022/10/08 10:24:35;;;;;;;4.40;2.90;;;19.90;59.60;;;;;;5039920;23;20687;-69
2022/10/08 10:26:40;;;;;;;9.07;2.90;;;19.80;58.40;;;;;;5065089;23;20166;-68
2022/10/08 10:28:53;;;;;;;5.07;2.53;;;19.70;58.90;;;;;;5039645;23;20155;-72
2022/10/08 10:31:09;;;;;;;4.93;2.70;;;19.30;61.70;;;;;;5015069;23;20217;-70
2022/10/08 10:33:17;;;;;;;4.77;2.30;;;19.50;59.60;;;;;;5039340;23;20210;-69
2022/10/08 10:35:30;;;;;;;5.30;2.37;;;19.30;59.40;;;;;;5039802;23;20187;-69
2022/10/08 10:37:43;;;;;;;5.00;2.40;;;18.70;63.10;;;;;;5041333;23;20163;-69
2022/10/08 10:40:13;;;;;;;4.30;2.27;;;18.50;64.10;;;;;;5041413;23;20159;-70
2022/10/08 10:42:20;;;;;;;6.93;2.80;;;18.50;65.70;;;;;;5041050;23;20171;-69
2022/10/08 10:45:03;;;;;;;5.63;3.27;;;19.30;62.30;;;;;;5042831;23;20219;-69
2022/10/08 10:47:06;;;;;;;6.97;2.67;;;19.40;61.00;;;;;;5027019;23;20167;-70
2022/10/08 10:49:15;;;;;;;5.33;2.30;;;19.30;59.60;;;;;;5017100;23;20192;-68
2022/10/08 10:52:14;;;;;;;4.60;2.63;;;19.10;60.40;;;;;;5042129;23;20502;-70